sensor_id;sensor_type;location;lat;lon;timestamp;pressure;altitude;pressure_sealevel;temperature;humidity
77110;BME280;66062;52.464;16.922;2023-05-10T00:01:10;100798.13;;;8.66;59.93
77110;BME280;66062;52.464;16.922;2023-05-10T00:03:36;100808.38;;;8.71;59.33
77110;BME280;66062;52.464;16.922;2023-05-10T00:06:01;100793.16;;;8.73;59.02
77110;BME280;66062;52.464;16.922;2023-05-10T00:08:27;100792.31;;;8.72;60.36
77110;BME280;66062;52.464;16.922;2023-05-10T00:10:53;100795.72;;;8.63;59.94
77110;BME280;66062;52.464;16.922;2023-05-10T00:13:18;100795.09;;;8.59;60.78
77110;BME280;66062;52.464;16.922;2023-05-10T00:15:44;100786.41;;;8.57;59.88
77110;BME280;66062;52.464;16.922;2023-05-10T00:18:09;100789.66;;;8.50;61.11
77110;BME280;66062;52.464;16.922;2023-05-10T00:20:34;100777.31;;;8.49;60.47
77110;BME280;66062;52.464;16.922;2023-05-10T00:23:00;100773.59;;;8.40;60.84
77110;BME280;66062;52.464;16.922;2023-05-10T00:25:25;100782.16;;;8.44;60.24
77110;BME280;66062;52.464;16.922;2023-05-10T00:27:51;100769.72;;;8.44;60.60
77110;BME280;66062;52.464;16.922;2023-05-10T00:30:17;100773.22;;;8.56;59.58
77110;BME280;66062;52.464;16.922;2023-05-10T00:32:43;100773.44;;;8.64;58.67
77110;BME280;66062;52.464;16.922;2023-05-10T00:35:08;100763.16;;;8.59;59.24
77110;BME280;66062;52.464;16.922;2023-05-10T00:37:34;100766.56;;;8.62;58.88
77110;BME280;66062;52.464;16.922;2023-05-10T00:39:59;100761.25;;;8.50;59.63
77110;BME280;66062;52.464;16.922;2023-05-10T00:42:24;100755.19;;;8.48;59.39
77110;BME280;66062;52.464;16.922;2023-05-10T00:44:50;100760.53;;;8.48;59.57
77110;BME280;66062;52.464;16.922;2023-05-10T00:47:16;100759.94;;;8.45;59.52
77110;BME280;66062;52.464;16.922;2023-05-10T00:49:42;100759.09;;;8.44;59.73
77110;BME280;66062;52.464;16.922;2023-05-10T00:52:14;100758.84;;;8.47;59.27
77110;BME280;66062;52.464;16.922;2023-05-10T00:54:42;100755.47;;;8.45;59.39
77110;BME280;66062;52.464;16.922;2023-05-10T00:57:07;100758.22;;;8.44;59.08
77110;BME280;66062;52.464;16.922;2023-05-10T00:59:32;100746.75;;;8.43;59.46
77110;BME280;66062;52.464;16.922;2023-05-10T01:02:01;100747.75;;;8.42;58.87
77110;BME280;66062;52.464;16.922;2023-05-10T01:04:27;100747.59;;;8.44;59.35
77110;BME280;66062;52.464;16.922;2023-05-10T01:06:53;100742.78;;;8.38;58.87
77110;BME280;66062;52.464;16.922;2023-05-10T01:09:20;100743.38;;;8.52;57.59
77110;BME280;66062;52.464;16.922;2023-05-10T01:11:47;100753.63;;;8.57;58.11
77110;BME280;66062;52.464;16.922;2023-05-10T01:14:13;100747.22;;;8.59;57.60
77110;BME280;66062;52.464;16.922;2023-05-10T01:16:40;100740.44;;;8.67;57.50
77110;BME280;66062;52.464;16.922;2023-05-10T01:19:12;100739.22;;;8.71;57.37
77110;BME280;66062;52.464;16.922;2023-05-10T01:35:50;100731.25;;;8.59;57.28
77110;BME280;66062;52.464;16.922;2023-05-10T01:38:30;100734.16;;;8.56;57.40
77110;BME280;66062;52.464;16.922;2023-05-10T01:41:08;100732.38;;;8.46;58.32
77110;BME280;66062;52.464;16.922;2023-05-10T01:43:48;100732.00;;;8.50;57.92
77110;BME280;66062;52.464;16.922;2023-05-10T01:46:23;100729.13;;;8.42;57.81
77110;BME280;66062;52.464;16.922;2023-05-10T01:48:52;100731.63;;;8.44;58.14
77110;BME280;66062;52.464;16.922;2023-05-10T01:51:29;100727.78;;;8.37;58.61
77110;BME280;66062;52.464;16.922;2023-05-10T01:54:01;100716.03;;;8.28;59.40
77110;BME280;66062;52.464;16.922;2023-05-10T01:56:30;100723.81;;;8.31;58.96
77110;BME280;66062;52.464;16.922;2023-05-10T01:58:57;100726.47;;;8.31;58.47
77110;BME280;66062;52.464;16.922;2023-05-10T02:01:23;100717.53;;;8.32;58.70
77110;BME280;66062;52.464;16.922;2023-05-10T02:03:51;100717.66;;;8.31;58.61
77110;BME280;66062;52.464;16.922;2023-05-10T02:06:19;100714.00;;;8.21;59.90
77110;BME280;66062;52.464;16.922;2023-05-10T02:08:47;100711.47;;;7.97;63.14
77110;BME280;66062;52.464;16.922;2023-05-10T02:11:13;100712.91;;;7.90;62.76
77110;BME280;66062;52.464;16.922;2023-05-10T02:13:39;100712.44;;;7.85;62.03
77110;BME280;66062;52.464;16.922;2023-05-10T02:16:07;100714.72;;;7.78;60.84
77110;BME280;66062;52.464;16.922;2023-05-10T02:18:33;100693.94;;;7.72;62.12
77110;BME280;66062;52.464;16.922;2023-05-10T02:21:01;100703.59;;;7.62;62.36
77110;BME280;66062;52.464;16.922;2023-05-10T02:23:28;100699.84;;;7.64;62.94
77110;BME280;66062;52.464;16.922;2023-05-10T02:25:55;100710.22;;;7.67;61.93
77110;BME280;66062;52.464;16.922;2023-05-10T02:28:23;100699.03;;;7.75;61.82
77110;BME280;66062;52.464;16.922;2023-05-10T02:30:51;100702.53;;;7.76;61.26
77110;BME280;66062;52.464;16.922;2023-05-10T02:33:16;100705.91;;;7.66;61.82
77110;BME280;66062;52.464;16.922;2023-05-10T02:35:43;100707.72;;;7.66;62.23
77110;BME280;66062;52.464;16.922;2023-05-10T02:38:10;100706.41;;;7.71;61.98
77110;BME280;66062;52.464;16.922;2023-05-10T02:40:37;100703.72;;;7.60;62.74
77110;BME280;66062;52.464;16.922;2023-05-10T02:43:04;100692.84;;;7.63;61.81
77110;BME280;66062;52.464;16.922;2023-05-10T02:45:31;100697.09;;;7.66;62.45
77110;BME280;66062;52.464;16.922;2023-05-10T02:47:58;100709.38;;;7.56;63.68
77110;BME280;66062;52.464;16.922;2023-05-10T02:50:25;100703.22;;;7.55;62.46
77110;BME280;66062;52.464;16.922;2023-05-10T02:52:54;100698.03;;;7.54;63.07
77110;BME280;66062;52.464;16.922;2023-05-10T02:55:26;100699.72;;;7.55;62.88
77110;BME280;66062;52.464;16.922;2023-05-10T02:57:59;100704.66;;;7.48;63.68
77110;BME280;66062;52.464;16.922;2023-05-10T03:00:25;100700.28;;;7.47;62.88
77110;BME280;66062;52.464;16.922;2023-05-10T03:02:51;100701.28;;;7.46;62.79
77110;BME280;66062;52.464;16.922;2023-05-10T03:05:16;100698.84;;;7.43;64.03
77110;BME280;66062;52.464;16.922;2023-05-10T03:07:42;100702.34;;;7.44;62.95
77110;BME280;66062;52.464;16.922;2023-05-10T03:10:09;100692.59;;;7.44;63.78
77110;BME280;66062;52.464;16.922;2023-05-10T03:13:07;100695.69;;;7.38;63.96
77110;BME280;66062;52.464;16.922;2023-05-10T03:18:22;100691.00;;;7.42;63.80
77110;BME280;66062;52.464;16.922;2023-05-10T03:20:50;100685.09;;;7.38;64.29
77110;BME280;66062;52.464;16.922;2023-05-10T03:26:00;100688.50;;;7.51;63.21
77110;BME280;66062;52.464;16.922;2023-05-10T03:28:27;100683.41;;;7.48;64.50
77110;BME280;66062;52.464;16.922;2023-05-10T03:30:56;100692.34;;;7.47;63.11
77110;BME280;66062;52.464;16.922;2023-05-10T03:33:21;100684.63;;;7.44;63.76
77110;BME280;66062;52.464;16.922;2023-05-10T03:35:47;100687.66;;;7.51;63.61
77110;BME280;66062;52.464;16.922;2023-05-10T03:38:13;100692.34;;;7.47;64.31
77110;BME280;66062;52.464;16.922;2023-05-10T03:40:38;100695.34;;;7.43;64.75
77110;BME280;66062;52.464;16.922;2023-05-10T03:43:04;100698.28;;;7.51;63.41
77110;BME280;66062;52.464;16.922;2023-05-10T03:45:29;100688.16;;;7.56;63.17
77110;BME280;66062;52.464;16.922;2023-05-10T03:47:56;100695.63;;;7.51;63.24
77110;BME280;66062;52.464;16.922;2023-05-10T03:50:22;100699.34;;;7.48;64.18
77110;BME280;66062;52.464;16.922;2023-05-10T03:52:48;100700.19;;;7.49;63.49
77110;BME280;66062;52.464;16.922;2023-05-10T03:55:13;100690.56;;;7.59;63.23
77110;BME280;66062;52.464;16.922;2023-05-10T03:57:38;100698.63;;;7.57;64.53
77110;BME280;66062;52.464;16.922;2023-05-10T04:00:04;100697.44;;;7.61;63.46
77110;BME280;66062;52.464;16.922;2023-05-10T04:02:30;100690.69;;;7.68;63.17
77110;BME280;66062;52.464;16.922;2023-05-10T04:04:56;100689.13;;;7.66;63.71
77110;BME280;66062;52.464;16.922;2023-05-10T04:07:22;100691.91;;;7.76;63.16
77110;BME280;66062;52.464;16.922;2023-05-10T04:09:47;100696.97;;;7.79;62.45
77110;BME280;66062;52.464;16.922;2023-05-10T04:12:13;100691.91;;;7.87;62.33
77110;BME280;66062;52.464;16.922;2023-05-10T04:14:38;100688.25;;;7.88;63.22
77110;BME280;66062;52.464;16.922;2023-05-10T04:17:04;100693.25;;;7.92;63.54
77110;BME280;66062;52.464;16.922;2023-05-10T04:19:32;100693.34;;;8.02;62.34
77110;BME280;66062;52.464;16.922;2023-05-10T04:21:58;100694.81;;;8.06;62.76
77110;BME280;66062;52.464;16.922;2023-05-10T04:24:24;100696.97;;;8.12;61.97
77110;BME280;66062;52.464;16.922;2023-05-10T04:26:49;100694.91;;;8.15;62.18
77110;BME280;66062;52.464;16.922;2023-05-10T04:29:15;100693.69;;;8.20;61.34
77110;BME280;66062;52.464;16.922;2023-05-10T04:31:40;100694.28;;;8.23;62.06
77110;BME280;66062;52.464;16.922;2023-05-10T04:34:06;100692.84;;;8.41;61.11
77110;BME280;66062;52.464;16.922;2023-05-10T04:36:31;100698.84;;;8.54;60.86
77110;BME280;66062;52.464;16.922;2023-05-10T04:38:59;100703.22;;;8.55;60.85
77110;BME280;66062;52.464;16.922;2023-05-10T04:41:24;100694.63;;;8.63;60.14
77110;BME280;66062;52.464;16.922;2023-05-10T04:43:51;100702.72;;;8.62;60.43
77110;BME280;66062;52.464;16.922;2023-05-10T04:46:16;100705.44;;;8.82;59.27
77110;BME280;66062;52.464;16.922;2023-05-10T04:48:41;100700.44;;;8.89;58.96
77110;BME280;66062;52.464;16.922;2023-05-10T04:51:07;100696.03;;;8.99;58.92
77110;BME280;66062;52.464;16.922;2023-05-10T04:53:32;100699.44;;;9.01;59.47
77110;BME280;66062;52.464;16.922;2023-05-10T04:55:58;100693.22;;;9.12;59.72
77110;BME280;66062;52.464;16.922;2023-05-10T04:58:23;100699.13;;;9.15;58.95
77110;BME280;66062;52.464;16.922;2023-05-10T05:00:49;100697.69;;;9.32;58.21
77110;BME280;66062;52.464;16.922;2023-05-10T05:03:14;100689.59;;;9.33;58.70
77110;BME280;66062;52.464;16.922;2023-05-10T05:05:40;100701.22;;;9.32;58.41
77110;BME280;66062;52.464;16.922;2023-05-10T05:08:05;100707.50;;;9.31;59.27
77110;BME280;66062;52.464;16.922;2023-05-10T05:10:31;100693.16;;;9.43;57.93
77110;BME280;66062;52.464;16.922;2023-05-10T05:12:56;100696.47;;;9.57;57.59
77110;BME280;66062;52.464;16.922;2023-05-10T05:15:21;100701.78;;;9.57;57.40
77110;BME280;66062;52.464;16.922;2023-05-10T05:17:47;100703.13;;;9.72;57.52
77110;BME280;66062;52.464;16.922;2023-05-10T05:20:13;100690.69;;;9.82;57.41
77110;BME280;66062;52.464;16.922;2023-05-10T05:22:38;100705.03;;;9.91;56.16
77110;BME280;66062;52.464;16.922;2023-05-10T05:25:04;100699.50;;;10.03;56.86
77110;BME280;66062;52.464;16.922;2023-05-10T05:27:31;100697.59;;;10.15;56.42
77110;BME280;66062;52.464;16.922;2023-05-10T05:29:56;100703.16;;;10.12;56.00
77110;BME280;66062;52.464;16.922;2023-05-10T05:32:23;100700.03;;;10.27;55.63
77110;BME280;66062;52.464;16.922;2023-05-10T05:34:49;100696.53;;;10.37;54.77
77110;BME280;66062;52.464;16.922;2023-05-10T05:37:15;100698.41;;;10.46;54.80
77110;BME280;66062;52.464;16.922;2023-05-10T05:39:41;100697.03;;;10.61;55.32
77110;BME280;66062;52.464;16.922;2023-05-10T05:42:08;100692.41;;;10.63;55.27
77110;BME280;66062;52.464;16.922;2023-05-10T05:44:34;100698.28;;;10.57;55.89
77110;BME280;66062;52.464;16.922;2023-05-10T05:47:00;100698.34;;;10.86;54.69
77110;BME280;66062;52.464;16.922;2023-05-10T05:49:25;100700.84;;;10.78;54.55
77110;BME280;66062;52.464;16.922;2023-05-10T05:51:50;100703.25;;;10.90;54.41
77110;BME280;66062;52.464;16.922;2023-05-10T05:54:16;100692.03;;;10.87;53.33
77110;BME280;66062;52.464;16.922;2023-05-10T05:56:41;100695.09;;;10.92;53.63
77110;BME280;66062;52.464;16.922;2023-05-10T05:59:07;100696.63;;;10.85;53.19
77110;BME280;66062;52.464;16.922;2023-05-10T06:01:33;100689.59;;;11.03;53.50
77110;BME280;66062;52.464;16.922;2023-05-10T06:03:58;100694.22;;;11.30;53.10
77110;BME280;66062;52.464;16.922;2023-05-10T06:06:24;100680.84;;;11.49;52.63
77110;BME280;66062;52.464;16.922;2023-05-10T06:08:49;100686.88;;;12.07;51.27
77110;BME280;66062;52.464;16.922;2023-05-10T06:11:14;100701.34;;;12.41;49.33
77110;BME280;66062;52.464;16.922;2023-05-10T06:13:40;100683.97;;;13.26;46.93
77110;BME280;66062;52.464;16.922;2023-05-10T06:16:05;100694.81;;;13.94;45.75
77110;BME280;66062;52.464;16.922;2023-05-10T06:18:31;100683.25;;;14.27;44.46
77110;BME280;66062;52.464;16.922;2023-05-10T06:20:56;100687.47;;;14.88;42.75
77110;BME280;66062;52.464;16.922;2023-05-10T06:23:22;100683.13;;;15.27;41.95
77110;BME280;66062;52.464;16.922;2023-05-10T06:25:48;100674.72;;;14.90;42.58
77110;BME280;66062;52.464;16.922;2023-05-10T06:28:13;100682.91;;;14.72;42.81
77110;BME280;66062;52.464;16.922;2023-05-10T06:30:39;100679.59;;;15.11;41.82
77110;BME280;66062;52.464;16.922;2023-05-10T06:33:04;100678.72;;;15.75;40.56
77110;BME280;66062;52.464;16.922;2023-05-10T06:35:30;100681.84;;;16.50;39.38
77110;BME280;66062;52.464;16.922;2023-05-10T06:37:56;100682.41;;;16.99;37.58
77110;BME280;66062;52.464;16.922;2023-05-10T06:40:21;100682.44;;;16.21;38.93
77110;BME280;66062;52.464;16.922;2023-05-10T06:42:47;100687.75;;;16.45;39.32
77110;BME280;66062;52.464;16.922;2023-05-10T06:45:14;100685.06;;;15.90;40.08
77110;BME280;66062;52.464;16.922;2023-05-10T06:47:40;100689.09;;;16.80;37.65
77110;BME280;66062;52.464;16.922;2023-05-10T06:50:07;100670.16;;;18.01;35.84
77110;BME280;66062;52.464;16.922;2023-05-10T06:52:33;100676.41;;;17.86;35.63
77110;BME280;66062;52.464;16.922;2023-05-10T06:54:59;100678.38;;;18.72;34.50
77110;BME280;66062;52.464;16.922;2023-05-10T06:57:25;100669.03;;;19.60;32.71
77110;BME280;66062;52.464;16.922;2023-05-10T06:59:51;100673.31;;;18.19;35.57
77110;BME280;66062;52.464;16.922;2023-05-10T07:02:17;100673.38;;;20.23;31.84
77110;BME280;66062;52.464;16.922;2023-05-10T07:04:44;100683.63;;;20.75;30.63
77110;BME280;66062;52.464;16.922;2023-05-10T07:07:12;100674.41;;;20.57;30.53
77110;BME280;66062;52.464;16.922;2023-05-10T07:09:37;100679.75;;;20.43;30.93
77110;BME280;66062;52.464;16.922;2023-05-10T07:12:03;100662.31;;;20.18;31.21
77110;BME280;66062;52.464;16.922;2023-05-10T07:14:28;100669.44;;;20.80;30.40
77110;BME280;66062;52.464;16.922;2023-05-10T07:16:54;100674.78;;;18.87;33.26
77110;BME280;66062;52.464;16.922;2023-05-10T07:19:20;100659.91;;;20.02;32.33
77110;BME280;66062;52.464;16.922;2023-05-10T07:21:45;100668.66;;;21.06;30.48
77110;BME280;66062;52.464;16.922;2023-05-10T07:24:12;100655.63;;;20.55;31.29
77110;BME280;66062;52.464;16.922;2023-05-10T07:26:37;100655.97;;;21.79;29.19
77110;BME280;66062;52.464;16.922;2023-05-10T07:29:02;100659.03;;;20.77;30.11
77110;BME280;66062;52.464;16.922;2023-05-10T07:31:28;100650.03;;;20.83;30.52
77110;BME280;66062;52.464;16.922;2023-05-10T07:33:54;100648.22;;;21.89;29.02
77110;BME280;66062;52.464;16.922;2023-05-10T07:36:19;100653.06;;;21.21;30.03
77110;BME280;66062;52.464;16.922;2023-05-10T07:38:44;100647.84;;;21.46;29.68
77110;BME280;66062;52.464;16.922;2023-05-10T07:41:11;100653.03;;;21.60;29.21
77110;BME280;66062;52.464;16.922;2023-05-10T07:43:37;100652.56;;;20.84;30.51
77110;BME280;66062;52.464;16.922;2023-05-10T07:46:03;100656.81;;;21.53;29.86
77110;BME280;66062;52.464;16.922;2023-05-10T07:48:28;100656.16;;;21.77;29.17
77110;BME280;66062;52.464;16.922;2023-05-10T07:50:54;100655.63;;;20.68;30.46
77110;BME280;66062;52.464;16.922;2023-05-10T07:53:19;100647.38;;;22.46;28.64
77110;BME280;66062;52.464;16.922;2023-05-10T07:55:50;100655.56;;;21.36;30.02
77110;BME280;66062;52.464;16.922;2023-05-10T07:58:15;100643.28;;;23.06;28.77
77110;BME280;66062;52.464;16.922;2023-05-10T08:00:41;100647.78;;;23.50;26.92
77110;BME280;66062;52.464;16.922;2023-05-10T08:03:06;100643.69;;;24.57;25.68
77110;BME280;66062;52.464;16.922;2023-05-10T08:05:32;100646.34;;;23.16;27.08
77110;BME280;66062;52.464;16.922;2023-05-10T08:07:57;100644.81;;;23.76;26.82
77110;BME280;66062;52.464;16.922;2023-05-10T08:10:24;100652.78;;;22.59;27.93
77110;BME280;66062;52.464;16.922;2023-05-10T08:12:50;100647.56;;;22.95;28.17
77110;BME280;66062;52.464;16.922;2023-05-10T08:15:16;100654.59;;;22.72;28.30
77110;BME280;66062;52.464;16.922;2023-05-10T08:17:41;100637.22;;;22.28;28.83
77110;BME280;66062;52.464;16.922;2023-05-10T08:20:08;100641.94;;;21.88;29.54
77110;BME280;66062;52.464;16.922;2023-05-10T08:22:34;100640.41;;;22.63;28.18
77110;BME280;66062;52.464;16.922;2023-05-10T08:24:59;100640.34;;;22.76;28.52
77110;BME280;66062;52.464;16.922;2023-05-10T08:27:25;100637.38;;;24.86;27.14
77110;BME280;66062;52.464;16.922;2023-05-10T08:29:50;100640.16;;;24.02;26.07
77110;BME280;66062;52.464;16.922;2023-05-10T08:32:16;100642.41;;;24.05;26.90
77110;BME280;66062;52.464;16.922;2023-05-10T08:34:41;100645.16;;;24.23;26.48
77110;BME280;66062;52.464;16.922;2023-05-10T08:37:07;100643.88;;;23.64;26.81
77110;BME280;66062;52.464;16.922;2023-05-10T08:39:35;100631.88;;;23.47;27.05
77110;BME280;66062;52.464;16.922;2023-05-10T08:42:03;100639.34;;;23.27;28.46
77110;BME280;66062;52.464;16.922;2023-05-10T08:44:31;100640.66;;;22.55;30.10
77110;BME280;66062;52.464;16.922;2023-05-10T08:46:59;100643.31;;;25.13;25.29
77110;BME280;66062;52.464;16.922;2023-05-10T08:49:25;100625.06;;;25.95;24.46
77110;BME280;66062;52.464;16.922;2023-05-10T08:51:54;100631.19;;;23.76;26.77
77110;BME280;66062;52.464;16.922;2023-05-10T08:54:21;100643.16;;;24.96;25.00
77110;BME280;66062;52.464;16.922;2023-05-10T08:56:47;100625.16;;;26.52;23.06
77110;BME280;66062;52.464;16.922;2023-05-10T08:59:12;100629.72;;;24.95;24.16
77110;BME280;66062;52.464;16.922;2023-05-10T09:01:39;100628.09;;;23.48;26.58
77110;BME280;66062;52.464;16.922;2023-05-10T09:04:05;100630.63;;;23.68;26.10
77110;BME280;66062;52.464;16.922;2023-05-10T09:06:31;100631.94;;;23.83;26.06
77110;BME280;66062;52.464;16.922;2023-05-10T09:08:57;100617.63;;;26.30;23.53
77110;BME280;66062;52.464;16.922;2023-05-10T09:11:23;100621.00;;;24.56;24.79
77110;BME280;66062;52.464;16.922;2023-05-10T09:13:50;100619.59;;;25.72;23.55
77110;BME280;66062;52.464;16.922;2023-05-10T09:16:16;100616.19;;;26.16;22.65
77110;BME280;66062;52.464;16.922;2023-05-10T09:18:42;100635.22;;;26.63;22.99
77110;BME280;66062;52.464;16.922;2023-05-10T09:21:08;100607.41;;;26.14;21.95
77110;BME280;66062;52.464;16.922;2023-05-10T09:23:34;100620.38;;;24.84;23.01
77110;BME280;66062;52.464;16.922;2023-05-10T09:26:06;100625.28;;;23.79;24.57
77110;BME280;66062;52.464;16.922;2023-05-10T09:31:15;100607.75;;;23.26;26.21
77110;BME280;66062;52.464;16.922;2023-05-10T09:33:44;100606.63;;;25.32;22.67
77110;BME280;66062;52.464;16.922;2023-05-10T09:36:10;100617.81;;;25.54;21.19
77110;BME280;66062;52.464;16.922;2023-05-10T09:38:51;100644.78;;;23.58;22.04
77110;BME280;66062;52.464;16.922;2023-05-10T09:41:22;100619.34;;;23.64;22.95
77110;BME280;66062;52.464;16.922;2023-05-10T09:43:48;100613.22;;;23.69;23.09
77110;BME280;66062;52.464;16.922;2023-05-10T09:46:15;100616.19;;;24.70;22.15
77110;BME280;66062;52.464;16.922;2023-05-10T09:48:50;100619.38;;;25.62;23.12
77110;BME280;66062;52.464;16.922;2023-05-10T09:51:25;100610.34;;;25.84;20.26
77110;BME280;66062;52.464;16.922;2023-05-10T09:54:15;100608.75;;;24.47;21.52
77110;BME280;66062;52.464;16.922;2023-05-10T09:56:42;100601.78;;;25.34;21.13
77110;BME280;66062;52.464;16.922;2023-05-10T09:59:10;100606.25;;;25.17;22.27
77110;BME280;66062;52.464;16.922;2023-05-10T10:01:37;100636.94;;;25.54;19.55
77110;BME280;66062;52.464;16.922;2023-05-10T10:04:03;100601.25;;;24.73;21.18
77110;BME280;66062;52.464;16.922;2023-05-10T10:06:29;100609.59;;;26.01;19.98
77110;BME280;66062;52.464;16.922;2023-05-10T10:08:59;100597.38;;;26.31;19.89
77110;BME280;66062;52.464;16.922;2023-05-10T10:11:25;100607.97;;;25.65;20.38
77110;BME280;66062;52.464;16.922;2023-05-10T10:13:50;100605.38;;;25.70;20.26
77110;BME280;66062;52.464;16.922;2023-05-10T10:16:16;100577.63;;;25.78;21.55
77110;BME280;66062;52.464;16.922;2023-05-10T10:18:42;100591.53;;;26.00;20.31
77110;BME280;66062;52.464;16.922;2023-05-10T10:21:07;100581.59;;;26.22;21.34
77110;BME280;66062;52.464;16.922;2023-05-10T10:23:35;100591.13;;;26.76;20.43
77110;BME280;66062;52.464;16.922;2023-05-10T10:26:03;100614.50;;;26.38;19.13
77110;BME280;66062;52.464;16.922;2023-05-10T10:34:05;100584.53;;;26.60;20.34
77110;BME280;66062;52.464;16.922;2023-05-10T10:36:33;100580.28;;;26.81;20.19
77110;BME280;66062;52.464;16.922;2023-05-10T10:39:00;100584.88;;;24.84;22.73
77110;BME280;66062;52.464;16.922;2023-05-10T10:41:37;100579.66;;;26.79;20.00
77110;BME280;66062;52.464;16.922;2023-05-10T10:49:28;100581.63;;;25.98;20.99
77110;BME280;66062;52.464;16.922;2023-05-10T10:57:50;100567.50;;;24.55;22.21
77110;BME280;66062;52.464;16.922;2023-05-10T11:00:28;100575.94;;;24.65;21.58
77110;BME280;66062;52.464;16.922;2023-05-10T11:03:08;100565.28;;;24.76;21.62
77110;BME280;66062;52.464;16.922;2023-05-10T11:08:31;100566.56;;;24.61;23.13
77110;BME280;66062;52.464;16.922;2023-05-10T11:14:02;100555.00;;;24.18;22.15
77110;BME280;66062;52.464;16.922;2023-05-10T11:21:27;100541.69;;;24.81;21.62
77110;BME280;66062;52.464;16.922;2023-05-10T11:23:54;100551.94;;;25.90;21.32
77110;BME280;66062;52.464;16.922;2023-05-10T11:26:34;100545.81;;;25.13;21.57
77110;BME280;66062;52.464;16.922;2023-05-10T11:28:59;100539.75;;;24.70;22.20
77110;BME280;66062;52.464;16.922;2023-05-10T11:31:27;100543.94;;;23.95;23.50
77110;BME280;66062;52.464;16.922;2023-05-10T11:33:55;100549.44;;;24.96;22.30
77110;BME280;66062;52.464;16.922;2023-05-10T11:36:23;100540.69;;;25.17;22.07
77110;BME280;66062;52.464;16.922;2023-05-10T11:38:49;100533.06;;;25.77;21.19
77110;BME280;66062;52.464;16.922;2023-05-10T11:41:16;100531.94;;;24.74;22.49
77110;BME280;66062;52.464;16.922;2023-05-10T11:43:42;100540.56;;;24.89;23.04
77110;BME280;66062;52.464;16.922;2023-05-10T11:46:10;100550.31;;;25.54;21.71
77110;BME280;66062;52.464;16.922;2023-05-10T11:48:38;100547.69;;;25.36;22.16
77110;BME280;66062;52.464;16.922;2023-05-10T11:51:03;100556.56;;;24.55;22.63
77110;BME280;66062;52.464;16.922;2023-05-10T11:53:31;100555.97;;;24.95;21.99
77110;BME280;66062;52.464;16.922;2023-05-10T11:56:04;100549.06;;;24.03;23.05
77110;BME280;66062;52.464;16.922;2023-05-10T11:58:31;100550.28;;;24.25;22.96
77110;BME280;66062;52.464;16.922;2023-05-10T12:01:00;100546.53;;;23.71;23.58
77110;BME280;66062;52.464;16.922;2023-05-10T12:03:27;100551.75;;;23.55;23.95
77110;BME280;66062;52.464;16.922;2023-05-10T12:05:53;100541.47;;;23.75;23.71
77110;BME280;66062;52.464;16.922;2023-05-10T12:08:21;100548.00;;;23.31;23.94
77110;BME280;66062;52.464;16.922;2023-05-10T12:10:47;100537.34;;;24.02;23.05
77110;BME280;66062;52.464;16.922;2023-05-10T12:13:14;100544.56;;;23.97;23.42
77110;BME280;66062;52.464;16.922;2023-05-10T12:15:40;100563.63;;;23.78;23.91
77110;BME280;66062;52.464;16.922;2023-05-10T12:18:08;100548.16;;;23.36;24.13
77110;BME280;66062;52.464;16.922;2023-05-10T12:20:35;100556.19;;;24.04;23.50
77110;BME280;66062;52.464;16.922;2023-05-10T12:23:01;100550.34;;;24.37;23.00
77110;BME280;66062;52.464;16.922;2023-05-10T12:25:36;100548.06;;;24.63;23.10
77110;BME280;66062;52.464;16.922;2023-05-10T12:28:07;100530.88;;;23.42;24.28
77110;BME280;66062;52.464;16.922;2023-05-10T12:30:35;100536.72;;;24.18;23.47
77110;BME280;66062;52.464;16.922;2023-05-10T12:33:08;100544.50;;;24.63;23.20
77110;BME280;66062;52.464;16.922;2023-05-10T12:35:38;100531.41;;;24.23;22.99
77110;BME280;66062;52.464;16.922;2023-05-10T12:38:32;100523.06;;;23.70;25.05
77110;BME280;66062;52.464;16.922;2023-05-10T12:40:59;100533.25;;;24.11;23.46
77110;BME280;66062;52.464;16.922;2023-05-10T12:43:25;100543.56;;;24.39;23.02
77110;BME280;66062;52.464;16.922;2023-05-10T12:45:50;100539.34;;;24.55;23.25
77110;BME280;66062;52.464;16.922;2023-05-10T12:48:16;100532.22;;;24.54;24.51
77110;BME280;66062;52.464;16.922;2023-05-10T12:50:41;100526.72;;;24.72;22.91
77110;BME280;66062;52.464;16.922;2023-05-10T12:53:07;100545.13;;;24.77;22.42
77110;BME280;66062;52.464;16.922;2023-05-10T12:55:32;100533.59;;;24.15;23.09
77110;BME280;66062;52.464;16.922;2023-05-10T12:57:58;100536.81;;;23.94;23.66
77110;BME280;66062;52.464;16.922;2023-05-10T13:00:23;100538.66;;;24.59;23.45
77110;BME280;66062;52.464;16.922;2023-05-10T13:02:49;100532.56;;;24.46;22.99
77110;BME280;66062;52.464;16.922;2023-05-10T13:05:17;100527.53;;;24.84;23.56
77110;BME280;66062;52.464;16.922;2023-05-10T13:07:42;100526.94;;;24.29;23.60
77110;BME280;66062;52.464;16.922;2023-05-10T13:10:09;100516.38;;;24.74;23.73
77110;BME280;66062;52.464;16.922;2023-05-10T13:12:35;100515.00;;;25.41;22.47
77110;BME280;66062;52.464;16.922;2023-05-10T13:15:00;100512.44;;;25.23;22.61
77110;BME280;66062;52.464;16.922;2023-05-10T13:17:26;100516.50;;;24.79;23.53
77110;BME280;66062;52.464;16.922;2023-05-10T13:19:51;100525.44;;;24.45;24.09
77110;BME280;66062;52.464;16.922;2023-05-10T13:22:17;100521.72;;;24.69;23.23
77110;BME280;66062;52.464;16.922;2023-05-10T13:24:42;100534.44;;;24.87;22.83
77110;BME280;66062;52.464;16.922;2023-05-10T13:27:08;100514.31;;;25.34;22.31
77110;BME280;66062;52.464;16.922;2023-05-10T13:29:34;100512.63;;;24.15;23.54
77110;BME280;66062;52.464;16.922;2023-05-10T13:31:59;100507.69;;;24.24;23.75